sensor_id;sensor_type;location;lat;lon;timestamp;P1;durP1;ratioP1;P2;durP2;ratioP2
72649;SDS011;61467;50.674;4.618;2023-01-28T00:00:10;10.32;;;5.40;;
72649;SDS011;61467;50.674;4.618;2023-01-28T00:02:37;11.50;;;5.20;;
72649;SDS011;61467;50.674;4.618;2023-01-28T00:05:04;10.95;;;5.28;;
72649;SDS011;61467;50.674;4.618;2023-01-28T00:07:32;10.87;;;5.20;;
72649;SDS011;61467;50.674;4.618;2023-01-28T00:09:59;10.20;;;5.00;;
72649;SDS011;61467;50.674;4.618;2023-01-28T00:12:27;11.13;;;5.68;;
72649;SDS011;61467;50.674;4.618;2023-01-28T00:14:54;9.48;;;4.57;;
72649;SDS011;61467;50.674;4.618;2023-01-28T00:17:20;8.90;;;4.25;;
72649;SDS011;61467;50.674;4.618;2023-01-28T00:19:47;9.27;;;4.13;;
72649;SDS011;61467;50.674;4.618;2023-01-28T00:22:14;7.78;;;3.50;;
72649;SDS011;61467;50.674;4.618;2023-01-28T00:24:42;9.18;;;4.10;;
72649;SDS011;61467;50.674;4.618;2023-01-28T00:27:09;8.07;;;3.85;;
72649;SDS011;61467;50.674;4.618;2023-01-28T00:29:38;8.85;;;3.83;;
72649;SDS011;61467;50.674;4.618;2023-01-28T00:32:05;8.03;;;3.67;;
72649;SDS011;61467;50.674;4.618;2023-01-28T00:34:32;8.30;;;3.63;;
72649;SDS011;61467;50.674;4.618;2023-01-28T00:36:58;8.10;;;3.55;;
72649;SDS011;61467;50.674;4.618;2023-01-28T00:39:25;7.10;;;3.17;;
72649;SDS011;61467;50.674;4.618;2023-01-28T00:41:52;8.15;;;3.40;;
72649;SDS011;61467;50.674;4.618;2023-01-28T00:44:19;8.47;;;3.43;;
72649;SDS011;61467;50.674;4.618;2023-01-28T00:46:47;6.97;;;3.33;;
72649;SDS011;61467;50.674;4.618;2023-01-28T00:49:14;7.70;;;3.30;;
72649;SDS011;61467;50.674;4.618;2023-01-28T00:51:41;8.50;;;3.72;;
72649;SDS011;61467;50.674;4.618;2023-01-28T00:54:09;6.95;;;3.15;;
72649;SDS011;61467;50.674;4.618;2023-01-28T00:56:37;8.67;;;3.50;;
72649;SDS011;61467;50.674;4.618;2023-01-28T00:59:04;8.15;;;3.55;;
72649;SDS011;61467;50.674;4.618;2023-01-28T01:01:31;8.15;;;3.38;;
72649;SDS011;61467;50.674;4.618;2023-01-28T01:03:59;7.78;;;3.53;;
72649;SDS011;61467;50.674;4.618;2023-01-28T01:06:28;9.55;;;3.97;;
72649;SDS011;61467;50.674;4.618;2023-01-28T01:08:56;8.47;;;3.63;;
72649;SDS011;61467;50.674;4.618;2023-01-28T01:11:23;8.95;;;4.00;;
72649;SDS011;61467;50.674;4.618;2023-01-28T01:13:50;8.68;;;4.43;;
72649;SDS011;61467;50.674;4.618;2023-01-28T01:16:21;8.77;;;4.20;;
72649;SDS011;61467;50.674;4.618;2023-01-28T01:18:50;8.15;;;4.00;;
72649;SDS011;61467;50.674;4.618;2023-01-28T01:21:19;7.80;;;3.33;;
72649;SDS011;61467;50.674;4.618;2023-01-28T01:23:47;9.25;;;3.97;;
72649;SDS011;61467;50.674;4.618;2023-01-28T01:26:14;8.10;;;3.50;;
72649;SDS011;61467;50.674;4.618;2023-01-28T01:28:41;9.35;;;4.05;;
72649;SDS011;61467;50.674;4.618;2023-01-28T01:31:09;9.02;;;4.15;;
72649;SDS011;61467;50.674;4.618;2023-01-28T01:33:38;9.30;;;3.87;;
72649;SDS011;61467;50.674;4.618;2023-01-28T01:36:05;8.43;;;3.35;;
72649;SDS011;61467;50.674;4.618;2023-01-28T01:38:34;9.02;;;4.38;;
72649;SDS011;61467;50.674;4.618;2023-01-28T01:41:02;8.98;;;3.67;;
72649;SDS011;61467;50.674;4.618;2023-01-28T01:43:46;8.85;;;4.07;;
72649;SDS011;61467;50.674;4.618;2023-01-28T01:46:14;9.13;;;4.10;;
72649;SDS011;61467;50.674;4.618;2023-01-28T01:48:45;8.93;;;4.05;;
72649;SDS011;61467;50.674;4.618;2023-01-28T01:51:13;9.05;;;4.00;;
72649;SDS011;61467;50.674;4.618;2023-01-28T01:53:45;10.63;;;4.57;;
72649;SDS011;61467;50.674;4.618;2023-01-28T01:56:16;10.88;;;5.20;;
72649;SDS011;61467;50.674;4.618;2023-01-28T01:58:47;9.37;;;4.37;;
72649;SDS011;61467;50.674;4.618;2023-01-28T02:01:18;9.07;;;4.00;;
72649;SDS011;61467;50.674;4.618;2023-01-28T02:03:50;10.32;;;4.85;;
72649;SDS011;61467;50.674;4.618;2023-01-28T02:06:20;10.20;;;4.75;;
72649;SDS011;61467;50.674;4.618;2023-01-28T02:08:52;10.48;;;4.72;;
72649;SDS011;61467;50.674;4.618;2023-01-28T02:11:19;9.07;;;4.20;;
72649;SDS011;61467;50.674;4.618;2023-01-28T02:13:49;10.30;;;4.75;;
72649;SDS011;61467;50.674;4.618;2023-01-28T02:16:18;9.50;;;4.63;;
72649;SDS011;61467;50.674;4.618;2023-01-28T02:18:46;10.23;;;4.55;;
72649;SDS011;61467;50.674;4.618;2023-01-28T02:21:18;9.32;;;4.85;;
72649;SDS011;61467;50.674;4.618;2023-01-28T02:24:13;12.20;;;4.83;;
72649;SDS011;61467;50.674;4.618;2023-01-28T02:26:55;10.05;;;4.60;;
72649;SDS011;61467;50.674;4.618;2023-01-28T02:29:37;10.82;;;5.25;;
72649;SDS011;61467;50.674;4.618;2023-01-28T02:32:10;11.00;;;4.85;;
72649;SDS011;61467;50.674;4.618;2023-01-28T02:34:42;11.15;;;5.35;;
72649;SDS011;61467;50.674;4.618;2023-01-28T02:37:13;12.83;;;5.07;;
72649;SDS011;61467;50.674;4.618;2023-01-28T02:39:44;11.82;;;5.50;;
72649;SDS011;61467;50.674;4.618;2023-01-28T02:42:15;13.20;;;6.10;;
72649;SDS011;61467;50.674;4.618;2023-01-28T02:44:46;12.25;;;5.15;;
72649;SDS011;61467;50.674;4.618;2023-01-28T02:47:13;14.05;;;6.18;;
72649;SDS011;61467;50.674;4.618;2023-01-28T02:49:58;12.07;;;5.27;;
72649;SDS011;61467;50.674;4.618;2023-01-28T02:52:29;14.20;;;6.10;;
72649;SDS011;61467;50.674;4.618;2023-01-28T02:55:22;14.00;;;6.63;;
72649;SDS011;61467;50.674;4.618;2023-01-28T02:57:58;14.50;;;6.05;;
72649;SDS011;61467;50.674;4.618;2023-01-28T03:00:32;13.88;;;6.15;;
72649;SDS011;61467;50.674;4.618;2023-01-28T03:03:10;12.63;;;5.63;;
72649;SDS011;61467;50.674;4.618;2023-01-28T03:05:43;13.25;;;5.72;;
72649;SDS011;61467;50.674;4.618;2023-01-28T03:08:29;14.20;;;6.20;;
72649;SDS011;61467;50.674;4.618;2023-01-28T03:11:16;13.02;;;5.93;;
72649;SDS011;61467;50.674;4.618;2023-01-28T03:14:00;12.70;;;5.75;;
72649;SDS011;61467;50.674;4.618;2023-01-28T03:16:46;13.77;;;6.40;;
72649;SDS011;61467;50.674;4.618;2023-01-28T03:19:33;13.23;;;5.72;;
72649;SDS011;61467;50.674;4.618;2023-01-28T03:22:18;13.48;;;6.75;;
72649;SDS011;61467;50.674;4.618;2023-01-28T03:25:04;15.40;;;6.75;;
72649;SDS011;61467;50.674;4.618;2023-01-28T03:27:52;13.43;;;6.10;;
72649;SDS011;61467;50.674;4.618;2023-01-28T03:30:41;14.70;;;6.70;;
72649;SDS011;61467;50.674;4.618;2023-01-28T03:33:31;14.55;;;6.60;;
72649;SDS011;61467;50.674;4.618;2023-01-28T03:36:17;13.45;;;6.47;;
72649;SDS011;61467;50.674;4.618;2023-01-28T03:39:02;14.50;;;6.90;;
72649;SDS011;61467;50.674;4.618;2023-01-28T03:41:29;14.98;;;6.72;;
72649;SDS011;61467;50.674;4.618;2023-01-28T03:43:56;15.50;;;7.17;;
72649;SDS011;61467;50.674;4.618;2023-01-28T03:46:36;15.00;;;7.00;;
72649;SDS011;61467;50.674;4.618;2023-01-28T03:49:05;14.82;;;6.72;;
72649;SDS011;61467;50.674;4.618;2023-01-28T03:51:32;14.68;;;6.68;;
72649;SDS011;61467;50.674;4.618;2023-01-28T03:53:59;15.80;;;7.18;;
72649;SDS011;61467;50.674;4.618;2023-01-28T03:56:26;13.50;;;6.63;;
72649;SDS011;61467;50.674;4.618;2023-01-28T03:59:01;15.88;;;6.22;;
72649;SDS011;61467;50.674;4.618;2023-01-28T04:01:28;17.63;;;7.63;;
72649;SDS011;61467;50.674;4.618;2023-01-28T04:03:55;16.98;;;7.55;;
72649;SDS011;61467;50.674;4.618;2023-01-28T04:06:23;15.57;;;7.30;;
72649;SDS011;61467;50.674;4.618;2023-01-28T04:08:50;18.77;;;8.20;;
72649;SDS011;61467;50.674;4.618;2023-01-28T04:11:18;16.85;;;7.07;;
72649;SDS011;61467;50.674;4.618;2023-01-28T04:13:46;19.00;;;8.50;;
72649;SDS011;61467;50.674;4.618;2023-01-28T04:16:14;18.40;;;7.68;;
72649;SDS011;61467;50.674;4.618;2023-01-28T04:18:43;19.15;;;8.50;;
72649;SDS011;61467;50.674;4.618;2023-01-28T04:21:10;18.00;;;7.87;;
72649;SDS011;61467;50.674;4.618;2023-01-28T04:23:39;19.13;;;8.43;;
72649;SDS011;61467;50.674;4.618;2023-01-28T04:26:05;17.48;;;7.60;;
72649;SDS011;61467;50.674;4.618;2023-01-28T04:28:32;15.90;;;7.47;;
72649;SDS011;61467;50.674;4.618;2023-01-28T04:30:59;16.98;;;7.85;;
72649;SDS011;61467;50.674;4.618;2023-01-28T04:33:26;19.67;;;8.63;;
72649;SDS011;61467;50.674;4.618;2023-01-28T04:35:53;18.30;;;7.78;;
72649;SDS011;61467;50.674;4.618;2023-01-28T04:38:20;18.33;;;8.50;;
72649;SDS011;61467;50.674;4.618;2023-01-28T04:40:49;17.70;;;8.02;;
72649;SDS011;61467;50.674;4.618;2023-01-28T04:43:17;18.35;;;7.97;;
72649;SDS011;61467;50.674;4.618;2023-01-28T04:45:44;18.57;;;7.90;;
72649;SDS011;61467;50.674;4.618;2023-01-28T04:48:11;19.42;;;8.38;;
72649;SDS011;61467;50.674;4.618;2023-01-28T04:50:38;17.75;;;7.82;;
72649;SDS011;61467;50.674;4.618;2023-01-28T04:53:05;18.08;;;7.53;;
72649;SDS011;61467;50.674;4.618;2023-01-28T04:55:32;16.13;;;7.70;;
72649;SDS011;61467;50.674;4.618;2023-01-28T04:58:00;16.13;;;7.10;;
72649;SDS011;61467;50.674;4.618;2023-01-28T05:00:27;15.27;;;6.95;;
72649;SDS011;61467;50.674;4.618;2023-01-28T05:02:54;16.70;;;7.05;;
72649;SDS011;61467;50.674;4.618;2023-01-28T05:05:21;16.58;;;7.70;;
72649;SDS011;61467;50.674;4.618;2023-01-28T05:07:51;16.48;;;7.38;;
72649;SDS011;61467;50.674;4.618;2023-01-28T05:10:18;14.70;;;7.10;;
72649;SDS011;61467;50.674;4.618;2023-01-28T05:12:46;17.40;;;7.25;;
72649;SDS011;61467;50.674;4.618;2023-01-28T05:15:15;15.23;;;6.55;;
72649;SDS011;61467;50.674;4.618;2023-01-28T05:17:42;15.07;;;6.82;;
72649;SDS011;61467;50.674;4.618;2023-01-28T05:20:11;17.48;;;7.25;;
72649;SDS011;61467;50.674;4.618;2023-01-28T05:22:39;18.53;;;8.10;;
72649;SDS011;61467;50.674;4.618;2023-01-28T05:25:07;17.20;;;6.88;;
72649;SDS011;61467;50.674;4.618;2023-01-28T05:27:34;15.35;;;6.78;;
72649;SDS011;61467;50.674;4.618;2023-01-28T05:30:01;18.73;;;7.43;;
72649;SDS011;61467;50.674;4.618;2023-01-28T05:32:32;16.33;;;7.03;;
72649;SDS011;61467;50.674;4.618;2023-01-28T05:34:58;14.20;;;6.13;;
72649;SDS011;61467;50.674;4.618;2023-01-28T05:37:25;14.93;;;6.88;;
72649;SDS011;61467;50.674;4.618;2023-01-28T05:39:52;15.48;;;6.15;;
72649;SDS011;61467;50.674;4.618;2023-01-28T05:42:19;15.20;;;6.55;;
72649;SDS011;61467;50.674;4.618;2023-01-28T05:44:46;14.60;;;6.18;;
72649;SDS011;61467;50.674;4.618;2023-01-28T05:47:13;15.27;;;5.93;;
72649;SDS011;61467;50.674;4.618;2023-01-28T05:49:41;14.20;;;5.47;;
72649;SDS011;61467;50.674;4.618;2023-01-28T05:52:08;16.52;;;7.32;;
72649;SDS011;61467;50.674;4.618;2023-01-28T05:54:35;15.55;;;6.15;;
72649;SDS011;61467;50.674;4.618;2023-01-28T05:57:02;16.08;;;6.50;;
72649;SDS011;61467;50.674;4.618;2023-01-28T05:59:29;15.50;;;6.67;;
72649;SDS011;61467;50.674;4.618;2023-01-28T06:01:55;16.17;;;5.90;;
72649;SDS011;61467;50.674;4.618;2023-01-28T06:04:22;16.15;;;6.75;;
72649;SDS011;61467;50.674;4.618;2023-01-28T06:06:50;14.77;;;5.93;;
72649;SDS011;61467;50.674;4.618;2023-01-28T06:09:17;13.35;;;6.57;;
72649;SDS011;61467;50.674;4.618;2023-01-28T06:11:44;13.83;;;6.07;;
72649;SDS011;61467;50.674;4.618;2023-01-28T06:14:11;15.70;;;6.60;;
72649;SDS011;61467;50.674;4.618;2023-01-28T06:16:37;14.30;;;6.05;;
72649;SDS011;61467;50.674;4.618;2023-01-28T06:19:04;13.98;;;5.78;;
72649;SDS011;61467;50.674;4.618;2023-01-28T06:21:31;14.32;;;6.18;;
72649;SDS011;61467;50.674;4.618;2023-01-28T06:24:00;15.77;;;5.67;;
72649;SDS011;61467;50.674;4.618;2023-01-28T06:26:26;17.33;;;7.13;;
72649;SDS011;61467;50.674;4.618;2023-01-28T06:28:53;17.95;;;7.00;;
72649;SDS011;61467;50.674;4.618;2023-01-28T06:31:20;14.48;;;5.95;;
72649;SDS011;61467;50.674;4.618;2023-01-28T06:33:47;14.40;;;6.05;;
72649;SDS011;61467;50.674;4.618;2023-01-28T06:36:14;14.87;;;6.40;;
72649;SDS011;61467;50.674;4.618;2023-01-28T06:38:40;15.10;;;6.10;;
72649;SDS011;61467;50.674;4.618;2023-01-28T06:41:09;16.27;;;6.88;;
72649;SDS011;61467;50.674;4.618;2023-01-28T06:43:35;13.77;;;6.22;;
72649;SDS011;61467;50.674;4.618;2023-01-28T06:46:02;16.50;;;6.88;;
72649;SDS011;61467;50.674;4.618;2023-01-28T06:48:29;16.37;;;6.63;;
72649;SDS011;61467;50.674;4.618;2023-01-28T06:50:56;17.77;;;7.90;;
72649;SDS011;61467;50.674;4.618;2023-01-28T06:53:23;15.30;;;6.63;;
72649;SDS011;61467;50.674;4.618;2023-01-28T06:55:50;16.85;;;7.15;;
72649;SDS011;61467;50.674;4.618;2023-01-28T06:58:18;17.08;;;7.15;;
72649;SDS011;61467;50.674;4.618;2023-01-28T07:00:45;15.10;;;6.00;;
72649;SDS011;61467;50.674;4.618;2023-01-28T07:03:11;15.48;;;6.35;;
72649;SDS011;61467;50.674;4.618;2023-01-28T07:05:38;15.10;;;6.38;;
72649;SDS011;61467;50.674;4.618;2023-01-28T07:08:05;14.88;;;6.55;;
72649;SDS011;61467;50.674;4.618;2023-01-28T07:10:32;15.80;;;6.43;;
72649;SDS011;61467;50.674;4.618;2023-01-28T07:12:59;14.93;;;6.10;;
72649;SDS011;61467;50.674;4.618;2023-01-28T07:15:28;13.65;;;5.72;;
72649;SDS011;61467;50.674;4.618;2023-01-28T07:17:54;15.15;;;6.43;;
72649;SDS011;61467;50.674;4.618;2023-01-28T07:20:21;13.88;;;6.22;;
72649;SDS011;61467;50.674;4.618;2023-01-28T07:22:48;14.63;;;6.13;;
72649;SDS011;61467;50.674;4.618;2023-01-28T07:25:15;12.83;;;5.70;;
72649;SDS011;61467;50.674;4.618;2023-01-28T07:27:48;14.90;;;6.82;;
72649;SDS011;61467;50.674;4.618;2023-01-28T07:30:17;12.90;;;5.88;;
72649;SDS011;61467;50.674;4.618;2023-01-28T07:32:46;13.65;;;5.93;;
72649;SDS011;61467;50.674;4.618;2023-01-28T07:35:13;12.98;;;6.13;;
72649;SDS011;61467;50.674;4.618;2023-01-28T07:37:40;15.30;;;6.17;;
72649;SDS011;61467;50.674;4.618;2023-01-28T07:40:07;13.93;;;6.00;;
72649;SDS011;61467;50.674;4.618;2023-01-28T07:42:35;14.15;;;5.88;;
72649;SDS011;61467;50.674;4.618;2023-01-28T07:45:02;13.20;;;5.63;;
72649;SDS011;61467;50.674;4.618;2023-01-28T07:47:29;17.60;;;6.38;;
72649;SDS011;61467;50.674;4.618;2023-01-28T07:49:57;14.27;;;5.77;;
72649;SDS011;61467;50.674;4.618;2023-01-28T07:52:24;14.32;;;6.00;;
72649;SDS011;61467;50.674;4.618;2023-01-28T07:54:51;13.25;;;5.80;;
72649;SDS011;61467;50.674;4.618;2023-01-28T07:57:18;14.07;;;6.45;;
72649;SDS011;61467;50.674;4.618;2023-01-28T07:59:47;15.18;;;6.57;;
72649;SDS011;61467;50.674;4.618;2023-01-28T08:02:14;14.07;;;6.50;;
72649;SDS011;61467;50.674;4.618;2023-01-28T08:04:42;14.50;;;6.25;;
72649;SDS011;61467;50.674;4.618;2023-01-28T08:07:10;14.25;;;6.57;;
72649;SDS011;61467;50.674;4.618;2023-01-28T08:09:37;15.65;;;6.43;;
72649;SDS011;61467;50.674;4.618;2023-01-28T08:12:04;16.08;;;7.00;;
72649;SDS011;61467;50.674;4.618;2023-01-28T08:14:31;14.00;;;6.13;;
72649;SDS011;61467;50.674;4.618;2023-01-28T08:16:58;14.18;;;6.22;;
72649;SDS011;61467;50.674;4.618;2023-01-28T08:19:25;14.63;;;6.35;;
72649;SDS011;61467;50.674;4.618;2023-01-28T08:21:53;16.08;;;7.43;;
72649;SDS011;61467;50.674;4.618;2023-01-28T08:24:21;13.40;;;6.07;;
72649;SDS011;61467;50.674;4.618;2023-01-28T08:26:48;14.07;;;6.33;;
72649;SDS011;61467;50.674;4.618;2023-01-28T08:29:15;16.17;;;7.50;;
72649;SDS011;61467;50.674;4.618;2023-01-28T08:31:41;13.57;;;5.88;;
72649;SDS011;61467;50.674;4.618;2023-01-28T08:34:08;14.43;;;6.45;;
72649;SDS011;61467;50.674;4.618;2023-01-28T08:36:35;15.68;;;7.13;;
72649;SDS011;61467;50.674;4.618;2023-01-28T08:39:02;15.17;;;6.80;;
72649;SDS011;61467;50.674;4.618;2023-01-28T08:41:31;15.35;;;6.90;;
72649;SDS011;61467;50.674;4.618;2023-01-28T08:43:58;17.10;;;6.80;;
72649;SDS011;61467;50.674;4.618;2023-01-28T08:46:25;15.80;;;6.80;;
72649;SDS011;61467;50.674;4.618;2023-01-28T08:48:52;15.32;;;6.43;;
72649;SDS011;61467;50.674;4.618;2023-01-28T08:51:19;14.97;;;6.33;;
72649;SDS011;61467;50.674;4.618;2023-01-28T08:53:45;17.58;;;6.65;;
72649;SDS011;61467;50.674;4.618;2023-01-28T08:56:12;14.65;;;6.32;;
72649;SDS011;61467;50.674;4.618;2023-01-28T08:58:41;15.65;;;6.65;;
72649;SDS011;61467;50.674;4.618;2023-01-28T09:01:09;14.68;;;6.28;;
72649;SDS011;61467;50.674;4.618;2023-01-28T09:03:36;17.10;;;6.80;;
72649;SDS011;61467;50.674;4.618;2023-01-28T09:06:03;17.70;;;7.70;;
72649;SDS011;61467;50.674;4.618;2023-01-28T09:08:30;16.60;;;6.97;;
72649;SDS011;61467;50.674;4.618;2023-01-28T09:10:58;15.68;;;7.80;;
72649;SDS011;61467;50.674;4.618;2023-01-28T09:13:25;17.90;;;7.30;;
72649;SDS011;61467;50.674;4.618;2023-01-28T09:15:54;15.00;;;6.83;;
72649;SDS011;61467;50.674;4.618;2023-01-28T09:18:21;12.73;;;5.65;;
72649;SDS011;61467;50.674;4.618;2023-01-28T09:20:47;13.98;;;6.60;;
72649;SDS011;61467;50.674;4.618;2023-01-28T09:23:14;12.85;;;5.70;;
72649;SDS011;61467;50.674;4.618;2023-01-28T09:25:41;14.55;;;6.68;;
72649;SDS011;61467;50.674;4.618;2023-01-28T09:28:08;14.60;;;6.27;;
72649;SDS011;61467;50.674;4.618;2023-01-28T09:30:35;15.07;;;6.30;;
72649;SDS011;61467;50.674;4.618;2023-01-28T09:33:05;13.70;;;5.55;;
72649;SDS011;61467;50.674;4.618;2023-01-28T09:35:32;11.38;;;5.45;;
72649;SDS011;61467;50.674;4.618;2023-01-28T09:37:59;12.63;;;5.85;;
72649;SDS011;61467;50.674;4.618;2023-01-28T09:40:29;14.20;;;5.80;;
72649;SDS011;61467;50.674;4.618;2023-01-28T09:43:14;14.63;;;6.57;;
72649;SDS011;61467;50.674;4.618;2023-01-28T09:45:51;12.75;;;5.60;;
72649;SDS011;61467;50.674;4.618;2023-01-28T09:48:26;12.85;;;5.38;;
72649;SDS011;61467;50.674;4.618;2023-01-28T09:50:57;16.20;;;6.18;;
72649;SDS011;61467;50.674;4.618;2023-01-28T09:53:27;14.83;;;6.10;;
72649;SDS011;61467;50.674;4.618;2023-01-28T09:55:57;13.00;;;5.95;;
72649;SDS011;61467;50.674;4.618;2023-01-28T09:58:27;14.60;;;6.78;;
72649;SDS011;61467;50.674;4.618;2023-01-28T10:00:56;13.57;;;5.53;;
72649;SDS011;61467;50.674;4.618;2023-01-28T10:03:39;12.60;;;5.85;;
72649;SDS011;61467;50.674;4.618;2023-01-28T10:06:19;13.13;;;5.77;;
72649;SDS011;61467;50.674;4.618;2023-01-28T10:11:48;12.57;;;6.18;;
72649;SDS011;61467;50.674;4.618;2023-01-28T10:14:27;12.25;;;5.85;;
72649;SDS011;61467;50.674;4.618;2023-01-28T10:17:06;14.25;;;5.50;;
72649;SDS011;61467;50.674;4.618;2023-01-28T10:19:40;13.20;;;5.90;;
72649;SDS011;61467;50.674;4.618;2023-01-28T10:22:14;12.93;;;5.80;;
72649;SDS011;61467;50.674;4.618;2023-01-28T10:24:44;12.27;;;5.22;;
72649;SDS011;61467;50.674;4.618;2023-01-28T10:27:15;13.90;;;6.30;;
72649;SDS011;61467;50.674;4.618;2023-01-28T10:29:44;13.75;;;5.93;;
72649;SDS011;61467;50.674;4.618;2023-01-28T10:32:15;13.73;;;6.27;;
72649;SDS011;61467;50.674;4.618;2023-01-28T10:34:49;14.23;;;5.38;;
72649;SDS011;61467;50.674;4.618;2023-01-28T10:37:17;13.50;;;6.28;;
72649;SDS011;61467;50.674;4.618;2023-01-28T10:39:45;13.43;;;6.15;;
72649;SDS011;61467;50.674;4.618;2023-01-28T10:42:15;16.15;;;6.68;;
72649;SDS011;61467;50.674;4.618;2023-01-28T10:44:45;15.23;;;6.73;;
72649;SDS011;61467;50.674;4.618;2023-01-28T10:47:13;15.27;;;6.80;;
72649;SDS011;61467;50.674;4.618;2023-01-28T10:49:44;14.23;;;7.10;;
72649;SDS011;61467;50.674;4.618;2023-01-28T10:52:18;15.25;;;7.18;;
72649;SDS011;61467;50.674;4.618;2023-01-28T10:54:45;14.20;;;6.68;;
72649;SDS011;61467;50.674;4.618;2023-01-28T10:57:12;12.87;;;6.07;;
72649;SDS011;61467;50.674;4.618;2023-01-28T10:59:42;17.27;;;6.72;;
72649;SDS011;61467;50.674;4.618;2023-01-28T11:02:20;13.38;;;6.00;;
72649;SDS011;61467;50.674;4.618;2023-01-28T11:05:02;15.75;;;7.15;;
72649;SDS011;61467;50.674;4.618;2023-01-28T11:07:32;14.30;;;6.13;;
72649;SDS011;61467;50.674;4.618;2023-01-28T11:09:59;13.27;;;6.30;;
72649;SDS011;61467;50.674;4.618;2023-01-28T11:12:27;14.95;;;6.78;;
72649;SDS011;61467;50.674;4.618;2023-01-28T11:14:56;13.15;;;6.45;;
72649;SDS011;61467;50.674;4.618;2023-01-28T11:17:25;13.55;;;6.38;;
72649;SDS011;61467;50.674;4.618;2023-01-28T11:19:55;16.10;;;6.90;;
72649;SDS011;61467;50.674;4.618;2023-01-28T11:22:25;13.57;;;6.40;;
72649;SDS011;61467;50.674;4.618;2023-01-28T11:24:59;13.43;;;5.63;;
72649;SDS011;61467;50.674;4.618;2023-01-28T11:27:29;12.27;;;5.53;;
72649;SDS011;61467;50.674;4.618;2023-01-28T11:29:57;14.73;;;5.72;;
72649;SDS011;61467;50.674;4.618;2023-01-28T11:32:27;14.70;;;6.20;;
72649;SDS011;61467;50.674;4.618;2023-01-28T11:34:55;13.27;;;5.63;;
72649;SDS011;61467;50.674;4.618;2023-01-28T11:37:23;13.77;;;5.75;;
72649;SDS011;61467;50.674;4.618;2023-01-28T11:40:15;13.15;;;6.20;;
72649;SDS011;61467;50.674;4.618;2023-01-28T11:42:44;15.00;;;6.68;;
72649;SDS011;61467;50.674;4.618;2023-01-28T11:45:14;13.13;;;5.88;;
72649;SDS011;61467;50.674;4.618;2023-01-28T11:47:46;15.97;;;6.33;;
72649;SDS011;61467;50.674;4.618;2023-01-28T11:50:29;13.05;;;6.10;;
72649;SDS011;61467;50.674;4.618;2023-01-28T11:53:16;12.75;;;6.32;;
72649;SDS011;61467;50.674;4.618;2023-01-28T11:55:59;12.85;;;6.07;;
72649;SDS011;61467;50.674;4.618;2023-01-28T11:58:37;13.57;;;6.72;;
72649;SDS011;61467;50.674;4.618;2023-01-28T12:01:12;13.97;;;6.43;;
72649;SDS011;61467;50.674;4.618;2023-01-28T12:03:45;13.30;;;6.22;;
72649;SDS011;61467;50.674;4.618;2023-01-28T12:06:30;17.25;;;7.20;;
72649;SDS011;61467;50.674;4.618;2023-01-28T12:09:09;15.18;;;6.38;;
72649;SDS011;61467;50.674;4.618;2023-01-28T12:11:48;14.13;;;6.55;;
72649;SDS011;61467;50.674;4.618;2023-01-28T12:14:43;13.47;;;5.73;;
72649;SDS011;61467;50.674;4.618;2023-01-28T12:17:25;13.18;;;6.07;;
72649;SDS011;61467;50.674;4.618;2023-01-28T12:20:05;14.30;;;6.50;;
72649;SDS011;61467;50.674;4.618;2023-01-28T12:25:42;13.75;;;6.63;;
72649;SDS011;61467;50.674;4.618;2023-01-28T12:28:23;13.83;;;5.97;;
72649;SDS011;61467;50.674;4.618;2023-01-28T12:31:04;13.65;;;5.32;;
72649;SDS011;61467;50.674;4.618;2023-01-28T12:33:57;13.48;;;6.57;;
72649;SDS011;61467;50.674;4.618;2023-01-28T12:36:36;15.23;;;6.60;;
72649;SDS011;61467;50.674;4.618;2023-01-28T12:39:16;12.60;;;6.05;;
72649;SDS011;61467;50.674;4.618;2023-01-28T12:41:53;13.87;;;6.17;;
72649;SDS011;61467;50.674;4.618;2023-01-28T12:44:31;13.68;;;6.15;;
72649;SDS011;61467;50.674;4.618;2023-01-28T12:47:04;15.30;;;5.85;;
72649;SDS011;61467;50.674;4.618;2023-01-28T12:49:34;12.68;;;5.65;;
72649;SDS011;61467;50.674;4.618;2023-01-28T12:52:07;14.57;;;6.15;;
72649;SDS011;61467;50.674;4.618;2023-01-28T12:54:39;14.07;;;5.90;;
72649;SDS011;61467;50.674;4.618;2023-01-28T12:57:16;14.35;;;6.28;;
72649;SDS011;61467;50.674;4.618;2023-01-28T12:59:50;14.88;;;6.93;;
72649;SDS011;61467;50.674;4.618;2023-01-28T13:02:21;14.35;;;6.35;;
72649;SDS011;61467;50.674;4.618;2023-01-28T13:04:53;15.27;;;6.32;;
72649;SDS011;61467;50.674;4.618;2023-01-28T13:07:28;13.60;;;5.80;;
72649;SDS011;61467;50.674;4.618;2023-01-28T13:10:03;13.32;;;5.63;;
72649;SDS011;61467;50.674;4.618;2023-01-28T13:12:35;16.95;;;6.47;;
72649;SDS011;61467;50.674;4.618;2023-01-28T13:15:11;15.70;;;6.43;;
72649;SDS011;61467;50.674;4.618;2023-01-28T13:17:52;14.65;;;6.32;;
72649;SDS011;61467;50.674;4.618;2023-01-28T13:20:28;15.57;;;6.87;;
72649;SDS011;61467;50.674;4.618;2023-01-28T13:22:59;12.10;;;5.57;;
72649;SDS011;61467;50.674;4.618;2023-01-28T13:25:27;13.82;;;6.43;;
72649;SDS011;61467;50.674;4.618;2023-01-28T13:27:55;14.13;;;6.05;;
72649;SDS011;61467;50.674;4.618;2023-01-28T13:30:26;12.23;;;5.25;;
72649;SDS011;61467;50.674;4.618;2023-01-28T13:32:55;13.23;;;5.73;;
72649;SDS011;61467;50.674;4.618;2023-01-28T13:35:27;13.93;;;6.70;;
72649;SDS011;61467;50.674;4.618;2023-01-28T13:37:57;14.75;;;6.90;;
72649;SDS011;61467;50.674;4.618;2023-01-28T13:40:25;14.05;;;5.95;;
72649;SDS011;61467;50.674;4.618;2023-01-28T13:42:58;14.85;;;6.55;;
72649;SDS011;61467;50.674;4.618;2023-01-28T13:45:28;12.57;;;5.67;;
72649;SDS011;61467;50.674;4.618;2023-01-28T13:47:58;12.50;;;5.30;;
72649;SDS011;61467;50.674;4.618;2023-01-28T13:50:32;13.80;;;6.30;;
72649;SDS011;61467;50.674;4.618;2023-01-28T13:53:06;13.60;;;6.38;;
72649;SDS011;61467;50.674;4.618;2023-01-28T13:55:45;13.70;;;6.80;;
72649;SDS011;61467;50.674;4.618;2023-01-28T13:58:26;15.27;;;6.57;;
72649;SDS011;61467;50.674;4.618;2023-01-28T14:04:24;16.50;;;7.38;;
72649;SDS011;61467;50.674;4.618;2023-01-28T14:10:07;15.30;;;6.78;;
72649;SDS011;61467;50.674;4.618;2023-01-28T14:13:05;14.83;;;6.63;;
72649;SDS011;61467;50.674;4.618;2023-01-28T14:15:56;13.60;;;5.97;;
72649;SDS011;61467;50.674;4.618;2023-01-28T14:18:32;14.95;;;6.50;;
72649;SDS011;61467;50.674;4.618;2023-01-28T14:21:07;13.73;;;6.20;;
72649;SDS011;61467;50.674;4.618;2023-01-28T14:23:36;16.38;;;7.10;;
72649;SDS011;61467;50.674;4.618;2023-01-28T14:26:14;15.33;;;6.50;;
72649;SDS011;61467;50.674;4.618;2023-01-28T14:28:50;15.20;;;5.90;;
72649;SDS011;61467;50.674;4.618;2023-01-28T14:31:29;13.60;;;5.90;;
72649;SDS011;61467;50.674;4.618;2023-01-28T14:33:59;13.93;;;6.40;;
72649;SDS011;61467;50.674;4.618;2023-01-28T14:36:36;14.60;;;6.30;;
72649;SDS011;61467;50.674;4.618;2023-01-28T14:39:08;15.70;;;6.90;;
72649;SDS011;61467;50.674;4.618;2023-01-28T14:41:41;14.20;;;6.53;;
72649;SDS011;61467;50.674;4.618;2023-01-28T14:44:10;14.48;;;6.97;;
72649;SDS011;61467;50.674;4.618;2023-01-28T14:46:48;15.45;;;6.78;;
72649;SDS011;61467;50.674;4.618;2023-01-28T14:49:24;15.40;;;7.28;;
72649;SDS011;61467;50.674;4.618;2023-01-28T14:54:57;15.55;;;6.63;;
72649;SDS011;61467;50.674;4.618;2023-01-28T14:57:42;16.27;;;7.20;;
72649;SDS011;61467;50.674;4.618;2023-01-28T15:00:15;15.77;;;6.65;;
72649;SDS011;61467;50.674;4.618;2023-01-28T15:02:44;13.93;;;6.20;;
72649;SDS011;61467;50.674;4.618;2023-01-28T15:05:13;14.10;;;6.17;;
72649;SDS011;61467;50.674;4.618;2023-01-28T15:07:44;13.00;;;6.05;;
72649;SDS011;61467;50.674;4.618;2023-01-28T15:10:13;13.75;;;6.43;;
72649;SDS011;61467;50.674;4.618;2023-01-28T15:12:44;15.05;;;6.65;;